sensor_id;sensor_type;location;lat;lon;timestamp;P1;durP1;ratioP1;P2;durP2;ratioP2
47856;SDS011;33618;49.972;8.242;2024-01-10T00:00:56;4.95;;;2.72;;
47856;SDS011;33618;49.972;8.242;2024-01-10T00:03:23;5.85;;;3.05;;
47856;SDS011;33618;49.972;8.242;2024-01-10T00:05:50;9.48;;;4.38;;
47856;SDS011;33618;49.972;8.242;2024-01-10T00:08:17;10.68;;;4.03;;
47856;SDS011;33618;49.972;8.242;2024-01-10T00:10:44;4.78;;;3.17;;
47856;SDS011;33618;49.972;8.242;2024-01-10T00:13:11;8.18;;;3.50;;
47856;SDS011;33618;49.972;8.242;2024-01-10T00:15:44;8.98;;;2.35;;
47856;SDS011;33618;49.972;8.242;2024-01-10T00:18:11;3.15;;;2.85;;
47856;SDS011;33618;49.972;8.242;2024-01-10T00:20:38;4.82;;;2.78;;
47856;SDS011;33618;49.972;8.242;2024-01-10T00:23:05;13.30;;;4.97;;
47856;SDS011;33618;49.972;8.242;2024-01-10T00:25:35;9.55;;;4.78;;
47856;SDS011;33618;49.972;8.242;2024-01-10T00:28:02;11.73;;;3.85;;
47856;SDS011;33618;49.972;8.242;2024-01-10T00:30:29;6.45;;;4.22;;
47856;SDS011;33618;49.972;8.242;2024-01-10T00:32:56;5.70;;;3.55;;
47856;SDS011;33618;49.972;8.242;2024-01-10T00:35:23;3.92;;;2.75;;
47856;SDS011;33618;49.972;8.242;2024-01-10T00:37:50;5.38;;;2.65;;
47856;SDS011;33618;49.972;8.242;2024-01-10T00:40:18;5.72;;;3.47;;
47856;SDS011;33618;49.972;8.242;2024-01-10T00:42:44;2.00;;;1.80;;
47856;SDS011;33618;49.972;8.242;2024-01-10T00:45:11;8.18;;;4.45;;
47856;SDS011;33618;49.972;8.242;2024-01-10T00:47:38;7.40;;;3.92;;
47856;SDS011;33618;49.972;8.242;2024-01-10T00:50:05;6.88;;;4.03;;
47856;SDS011;33618;49.972;8.242;2024-01-10T00:52:32;10.57;;;4.38;;
47856;SDS011;33618;49.972;8.242;2024-01-10T00:54:59;5.95;;;2.97;;
47856;SDS011;33618;49.972;8.242;2024-01-10T00:57:26;6.75;;;3.85;;
47856;SDS011;33618;49.972;8.242;2024-01-10T00:59:53;4.88;;;3.40;;
47856;SDS011;33618;49.972;8.242;2024-01-10T01:02:20;5.03;;;3.08;;
47856;SDS011;33618;49.972;8.242;2024-01-10T01:04:47;4.72;;;3.38;;
47856;SDS011;33618;49.972;8.242;2024-01-10T01:07:14;6.68;;;3.67;;
47856;SDS011;33618;49.972;8.242;2024-01-10T01:09:41;5.32;;;3.80;;
47856;SDS011;33618;49.972;8.242;2024-01-10T01:12:08;11.85;;;5.07;;
47856;SDS011;33618;49.972;8.242;2024-01-10T01:14:34;11.00;;;4.03;;
47856;SDS011;33618;49.972;8.242;2024-01-10T01:17:01;11.98;;;3.45;;
47856;SDS011;33618;49.972;8.242;2024-01-10T01:19:29;7.30;;;3.55;;
47856;SDS011;33618;49.972;8.242;2024-01-10T01:21:56;5.82;;;4.32;;
47856;SDS011;33618;49.972;8.242;2024-01-10T01:24:41;18.38;;;4.13;;
47856;SDS011;33618;49.972;8.242;2024-01-10T01:30:27;8.18;;;3.85;;
47856;SDS011;33618;49.972;8.242;2024-01-10T01:32:54;6.63;;;3.33;;
47856;SDS011;33618;49.972;8.242;2024-01-10T01:35:21;8.65;;;4.63;;
47856;SDS011;33618;49.972;8.242;2024-01-10T01:37:50;12.20;;;4.57;;
47856;SDS011;33618;49.972;8.242;2024-01-10T01:40:18;7.43;;;4.15;;
47856;SDS011;33618;49.972;8.242;2024-01-10T01:42:45;14.00;;;5.50;;
47856;SDS011;33618;49.972;8.242;2024-01-10T01:45:12;8.13;;;3.40;;
47856;SDS011;33618;49.972;8.242;2024-01-10T01:47:40;8.00;;;4.05;;
47856;SDS011;33618;49.972;8.242;2024-01-10T01:50:08;8.07;;;3.85;;
47856;SDS011;33618;49.972;8.242;2024-01-10T01:52:35;6.40;;;4.30;;
47856;SDS011;33618;49.972;8.242;2024-01-10T01:55:04;12.85;;;5.13;;
47856;SDS011;33618;49.972;8.242;2024-01-10T01:57:33;7.32;;;4.57;;
47856;SDS011;33618;49.972;8.242;2024-01-10T02:00:01;9.20;;;4.50;;
47856;SDS011;33618;49.972;8.242;2024-01-10T02:02:28;6.53;;;4.53;;
47856;SDS011;33618;49.972;8.242;2024-01-10T02:04:57;5.93;;;4.05;;
47856;SDS011;33618;49.972;8.242;2024-01-10T02:07:25;10.73;;;4.78;;
47856;SDS011;33618;49.972;8.242;2024-01-10T02:09:53;7.70;;;3.80;;
47856;SDS011;33618;49.972;8.242;2024-01-10T02:12:20;13.70;;;4.75;;
47856;SDS011;33618;49.972;8.242;2024-01-10T02:14:47;12.23;;;4.85;;
47856;SDS011;33618;49.972;8.242;2024-01-10T02:17:14;7.80;;;4.30;;
47856;SDS011;33618;49.972;8.242;2024-01-10T02:19:41;3.95;;;3.13;;
47856;SDS011;33618;49.972;8.242;2024-01-10T02:22:09;12.18;;;5.03;;
47856;SDS011;33618;49.972;8.242;2024-01-10T02:24:37;12.30;;;4.65;;
47856;SDS011;33618;49.972;8.242;2024-01-10T02:27:04;6.05;;;4.53;;
47856;SDS011;33618;49.972;8.242;2024-01-10T02:29:31;11.80;;;5.55;;
47856;SDS011;33618;49.972;8.242;2024-01-10T02:31:59;5.97;;;3.25;;
47856;SDS011;33618;49.972;8.242;2024-01-10T02:34:26;11.27;;;6.10;;
47856;SDS011;33618;49.972;8.242;2024-01-10T02:36:53;15.50;;;5.50;;
47856;SDS011;33618;49.972;8.242;2024-01-10T02:39:20;10.15;;;4.45;;
47856;SDS011;33618;49.972;8.242;2024-01-10T02:41:47;7.32;;;4.30;;
47856;SDS011;33618;49.972;8.242;2024-01-10T02:44:14;9.50;;;5.03;;
47856;SDS011;33618;49.972;8.242;2024-01-10T02:46:42;9.18;;;4.18;;
47856;SDS011;33618;49.972;8.242;2024-01-10T02:49:09;9.43;;;4.55;;
47856;SDS011;33618;49.972;8.242;2024-01-10T02:51:36;8.35;;;3.60;;
47856;SDS011;33618;49.972;8.242;2024-01-10T02:54:03;5.35;;;3.88;;
47856;SDS011;33618;49.972;8.242;2024-01-10T02:56:30;11.00;;;5.60;;
47856;SDS011;33618;49.972;8.242;2024-01-10T02:58:57;14.57;;;4.90;;
47856;SDS011;33618;49.972;8.242;2024-01-10T03:01:24;11.18;;;4.85;;
47856;SDS011;33618;49.972;8.242;2024-01-10T03:03:51;8.27;;;4.47;;
47856;SDS011;33618;49.972;8.242;2024-01-10T03:06:18;9.00;;;5.70;;
47856;SDS011;33618;49.972;8.242;2024-01-10T03:08:45;5.68;;;3.78;;
47856;SDS011;33618;49.972;8.242;2024-01-10T03:11:11;10.88;;;5.20;;
47856;SDS011;33618;49.972;8.242;2024-01-10T03:13:38;9.88;;;4.65;;
47856;SDS011;33618;49.972;8.242;2024-01-10T03:16:06;9.98;;;5.35;;
47856;SDS011;33618;49.972;8.242;2024-01-10T03:18:33;11.82;;;5.60;;
47856;SDS011;33618;49.972;8.242;2024-01-10T03:21:00;6.65;;;4.30;;
47856;SDS011;33618;49.972;8.242;2024-01-10T03:23:27;6.75;;;4.18;;
47856;SDS011;33618;49.972;8.242;2024-01-10T03:25:54;9.90;;;5.65;;
47856;SDS011;33618;49.972;8.242;2024-01-10T03:28:23;14.18;;;6.75;;
47856;SDS011;33618;49.972;8.242;2024-01-10T03:30:50;8.23;;;5.07;;
47856;SDS011;33618;49.972;8.242;2024-01-10T03:33:17;11.15;;;5.45;;
47856;SDS011;33618;49.972;8.242;2024-01-10T03:35:44;7.82;;;4.28;;
47856;SDS011;33618;49.972;8.242;2024-01-10T03:38:11;6.15;;;3.42;;
47856;SDS011;33618;49.972;8.242;2024-01-10T03:40:38;9.45;;;4.80;;
47856;SDS011;33618;49.972;8.242;2024-01-10T03:43:05;8.63;;;5.35;;
47856;SDS011;33618;49.972;8.242;2024-01-10T03:45:32;6.93;;;5.22;;
47856;SDS011;33618;49.972;8.242;2024-01-10T03:47:59;9.02;;;4.40;;
47856;SDS011;33618;49.972;8.242;2024-01-10T03:50:26;9.93;;;4.97;;
47856;SDS011;33618;49.972;8.242;2024-01-10T03:52:52;12.90;;;5.00;;
47856;SDS011;33618;49.972;8.242;2024-01-10T03:55:19;12.98;;;5.35;;
47856;SDS011;33618;49.972;8.242;2024-01-10T03:57:46;7.88;;;4.00;;
47856;SDS011;33618;49.972;8.242;2024-01-10T04:00:13;10.32;;;4.45;;
47856;SDS011;33618;49.972;8.242;2024-01-10T04:02:40;13.32;;;5.03;;
47856;SDS011;33618;49.972;8.242;2024-01-10T04:05:08;10.80;;;5.97;;
47856;SDS011;33618;49.972;8.242;2024-01-10T04:07:36;4.18;;;3.28;;
47856;SDS011;33618;49.972;8.242;2024-01-10T04:10:03;5.63;;;4.05;;
47856;SDS011;33618;49.972;8.242;2024-01-10T04:12:33;4.93;;;3.67;;
47856;SDS011;33618;49.972;8.242;2024-01-10T04:15:00;8.98;;;5.40;;
47856;SDS011;33618;49.972;8.242;2024-01-10T04:17:26;15.43;;;5.85;;
47856;SDS011;33618;49.972;8.242;2024-01-10T04:19:54;9.52;;;6.60;;
47856;SDS011;33618;49.972;8.242;2024-01-10T04:22:21;12.05;;;3.92;;
47856;SDS011;33618;49.972;8.242;2024-01-10T04:24:49;12.57;;;6.88;;
47856;SDS011;33618;49.972;8.242;2024-01-10T04:27:17;13.20;;;5.35;;
47856;SDS011;33618;49.972;8.242;2024-01-10T04:29:44;16.38;;;5.82;;
47856;SDS011;33618;49.972;8.242;2024-01-10T04:32:11;15.98;;;6.03;;
47856;SDS011;33618;49.972;8.242;2024-01-10T04:34:38;5.97;;;3.28;;
47856;SDS011;33618;49.972;8.242;2024-01-10T04:37:05;5.93;;;3.88;;
47856;SDS011;33618;49.972;8.242;2024-01-10T04:39:35;13.00;;;5.53;;
47856;SDS011;33618;49.972;8.242;2024-01-10T04:42:04;7.10;;;4.40;;
47856;SDS011;33618;49.972;8.242;2024-01-10T04:44:31;9.02;;;4.97;;
47856;SDS011;33618;49.972;8.242;2024-01-10T04:46:58;7.32;;;4.20;;
47856;SDS011;33618;49.972;8.242;2024-01-10T04:49:25;13.68;;;4.47;;
47856;SDS011;33618;49.972;8.242;2024-01-10T04:51:52;11.63;;;5.43;;
47856;SDS011;33618;49.972;8.242;2024-01-10T04:54:19;13.27;;;4.47;;
47856;SDS011;33618;49.972;8.242;2024-01-10T04:56:46;17.33;;;4.93;;
47856;SDS011;33618;49.972;8.242;2024-01-10T04:59:13;4.53;;;3.35;;
47856;SDS011;33618;49.972;8.242;2024-01-10T05:01:40;14.48;;;6.32;;
47856;SDS011;33618;49.972;8.242;2024-01-10T05:04:07;11.73;;;4.97;;
47856;SDS011;33618;49.972;8.242;2024-01-10T05:06:34;16.33;;;6.55;;
47856;SDS011;33618;49.972;8.242;2024-01-10T05:09:01;17.23;;;6.43;;
47856;SDS011;33618;49.972;8.242;2024-01-10T05:11:28;11.50;;;5.13;;
47856;SDS011;33618;49.972;8.242;2024-01-10T05:13:56;9.00;;;4.90;;
47856;SDS011;33618;49.972;8.242;2024-01-10T05:16:22;9.05;;;4.68;;
47856;SDS011;33618;49.972;8.242;2024-01-10T05:18:50;9.45;;;4.15;;
47856;SDS011;33618;49.972;8.242;2024-01-10T05:21:16;12.63;;;5.05;;
47856;SDS011;33618;49.972;8.242;2024-01-10T05:27:43;12.93;;;5.45;;
47856;SDS011;33618;49.972;8.242;2024-01-10T05:30:10;7.78;;;4.97;;
47856;SDS011;33618;49.972;8.242;2024-01-10T05:32:39;15.93;;;6.53;;
47856;SDS011;33618;49.972;8.242;2024-01-10T05:35:06;13.45;;;5.82;;
47856;SDS011;33618;49.972;8.242;2024-01-10T05:37:34;11.43;;;5.03;;
47856;SDS011;33618;49.972;8.242;2024-01-10T05:40:01;13.30;;;6.10;;
47856;SDS011;33618;49.972;8.242;2024-01-10T05:42:28;23.60;;;6.53;;
47856;SDS011;33618;49.972;8.242;2024-01-10T05:44:55;10.27;;;5.97;;
47856;SDS011;33618;49.972;8.242;2024-01-10T05:47:22;7.10;;;4.65;;
47856;SDS011;33618;49.972;8.242;2024-01-10T05:49:49;10.43;;;5.00;;
47856;SDS011;33618;49.972;8.242;2024-01-10T05:52:15;13.02;;;6.15;;
47856;SDS011;33618;49.972;8.242;2024-01-10T05:54:42;15.82;;;6.88;;
47856;SDS011;33618;49.972;8.242;2024-01-10T05:57:09;12.18;;;4.32;;
47856;SDS011;33618;49.972;8.242;2024-01-10T05:59:36;13.55;;;6.15;;
47856;SDS011;33618;49.972;8.242;2024-01-10T06:02:03;13.43;;;6.30;;
47856;SDS011;33618;49.972;8.242;2024-01-10T06:04:31;9.65;;;4.95;;
47856;SDS011;33618;49.972;8.242;2024-01-10T06:06:58;9.88;;;4.93;;
47856;SDS011;33618;49.972;8.242;2024-01-10T06:09:25;4.38;;;3.00;;
47856;SDS011;33618;49.972;8.242;2024-01-10T06:11:52;14.85;;;6.85;;
47856;SDS011;33618;49.972;8.242;2024-01-10T06:14:19;13.63;;;5.78;;
47856;SDS011;33618;49.972;8.242;2024-01-10T06:16:46;14.85;;;6.13;;
47856;SDS011;33618;49.972;8.242;2024-01-10T06:19:12;12.90;;;5.80;;
47856;SDS011;33618;49.972;8.242;2024-01-10T06:21:39;10.13;;;4.78;;
47856;SDS011;33618;49.972;8.242;2024-01-10T06:24:06;9.27;;;5.43;;
47856;SDS011;33618;49.972;8.242;2024-01-10T06:26:34;9.68;;;5.03;;
47856;SDS011;33618;49.972;8.242;2024-01-10T06:29:01;13.57;;;5.35;;
47856;SDS011;33618;49.972;8.242;2024-01-10T06:31:28;12.25;;;5.70;;
47856;SDS011;33618;49.972;8.242;2024-01-10T06:33:55;15.65;;;7.20;;
47856;SDS011;33618;49.972;8.242;2024-01-10T06:36:22;17.23;;;5.60;;
47856;SDS011;33618;49.972;8.242;2024-01-10T06:38:49;11.82;;;5.15;;
47856;SDS011;33618;49.972;8.242;2024-01-10T06:41:16;10.10;;;5.47;;
47856;SDS011;33618;49.972;8.242;2024-01-10T06:43:43;7.43;;;4.32;;
47856;SDS011;33618;49.972;8.242;2024-01-10T06:46:10;11.80;;;5.32;;
47856;SDS011;33618;49.972;8.242;2024-01-10T06:48:37;15.35;;;5.38;;
47856;SDS011;33618;49.972;8.242;2024-01-10T06:51:14;9.75;;;4.80;;
47856;SDS011;33618;49.972;8.242;2024-01-10T06:53:41;5.43;;;3.38;;
47856;SDS011;33618;49.972;8.242;2024-01-10T06:56:09;14.77;;;5.22;;
47856;SDS011;33618;49.972;8.242;2024-01-10T06:58:36;11.40;;;5.25;;
47856;SDS011;33618;49.972;8.242;2024-01-10T07:01:04;11.00;;;5.07;;
47856;SDS011;33618;49.972;8.242;2024-01-10T07:03:31;12.88;;;3.65;;
47856;SDS011;33618;49.972;8.242;2024-01-10T07:06:01;9.20;;;5.47;;
47856;SDS011;33618;49.972;8.242;2024-01-10T07:08:28;14.88;;;5.95;;
47856;SDS011;33618;49.972;8.242;2024-01-10T07:10:57;10.70;;;5.45;;
47856;SDS011;33618;49.972;8.242;2024-01-10T07:13:24;13.70;;;6.00;;
47856;SDS011;33618;49.972;8.242;2024-01-10T07:15:50;14.93;;;4.45;;
47856;SDS011;33618;49.972;8.242;2024-01-10T07:18:18;12.43;;;4.65;;
47856;SDS011;33618;49.972;8.242;2024-01-10T07:20:45;7.65;;;3.92;;
47856;SDS011;33618;49.972;8.242;2024-01-10T07:23:12;21.08;;;5.97;;
47856;SDS011;33618;49.972;8.242;2024-01-10T07:25:39;7.80;;;5.45;;
47856;SDS011;33618;49.972;8.242;2024-01-10T07:28:06;7.45;;;4.55;;
47856;SDS011;33618;49.972;8.242;2024-01-10T07:30:33;12.55;;;5.45;;
47856;SDS011;33618;49.972;8.242;2024-01-10T07:33:00;13.40;;;4.35;;
47856;SDS011;33618;49.972;8.242;2024-01-10T07:35:28;8.18;;;4.07;;
47856;SDS011;33618;49.972;8.242;2024-01-10T07:37:56;14.90;;;6.30;;
47856;SDS011;33618;49.972;8.242;2024-01-10T07:40:23;14.80;;;5.28;;
47856;SDS011;33618;49.972;8.242;2024-01-10T07:42:50;17.15;;;6.07;;
47856;SDS011;33618;49.972;8.242;2024-01-10T07:45:17;11.95;;;5.63;;
47856;SDS011;33618;49.972;8.242;2024-01-10T07:47:44;11.75;;;5.15;;
47856;SDS011;33618;49.972;8.242;2024-01-10T07:50:12;14.00;;;6.45;;
47856;SDS011;33618;49.972;8.242;2024-01-10T07:52:41;10.52;;;5.43;;
47856;SDS011;33618;49.972;8.242;2024-01-10T07:55:09;14.15;;;5.32;;
47856;SDS011;33618;49.972;8.242;2024-01-10T07:57:36;6.20;;;4.65;;
47856;SDS011;33618;49.972;8.242;2024-01-10T08:00:04;15.27;;;5.88;;
47856;SDS011;33618;49.972;8.242;2024-01-10T08:02:32;11.48;;;4.68;;
47856;SDS011;33618;49.972;8.242;2024-01-10T08:05:01;10.00;;;5.30;;
47856;SDS011;33618;49.972;8.242;2024-01-10T08:07:32;15.77;;;5.15;;
47856;SDS011;33618;49.972;8.242;2024-01-10T08:10:06;8.63;;;4.88;;
47856;SDS011;33618;49.972;8.242;2024-01-10T08:12:36;11.98;;;4.85;;
47856;SDS011;33618;49.972;8.242;2024-01-10T08:15:04;14.38;;;6.95;;
47856;SDS011;33618;49.972;8.242;2024-01-10T08:17:32;16.48;;;6.60;;
47856;SDS011;33618;49.972;8.242;2024-01-10T08:19:59;21.40;;;6.68;;
47856;SDS011;33618;49.972;8.242;2024-01-10T08:22:27;23.15;;;6.07;;
47856;SDS011;33618;49.972;8.242;2024-01-10T08:24:54;15.95;;;6.47;;
47856;SDS011;33618;49.972;8.242;2024-01-10T08:27:22;12.95;;;6.53;;
47856;SDS011;33618;49.972;8.242;2024-01-10T08:29:49;15.18;;;6.43;;
47856;SDS011;33618;49.972;8.242;2024-01-10T08:32:16;20.05;;;7.53;;
47856;SDS011;33618;49.972;8.242;2024-01-10T08:34:44;16.05;;;5.43;;
47856;SDS011;33618;49.972;8.242;2024-01-10T08:37:11;16.10;;;6.90;;
47856;SDS011;33618;49.972;8.242;2024-01-10T08:39:38;12.68;;;6.55;;
47856;SDS011;33618;49.972;8.242;2024-01-10T08:42:05;15.77;;;6.45;;
47856;SDS011;33618;49.972;8.242;2024-01-10T08:44:32;15.38;;;5.40;;
47856;SDS011;33618;49.972;8.242;2024-01-10T08:46:59;21.52;;;7.55;;
47856;SDS011;33618;49.972;8.242;2024-01-10T08:49:26;15.68;;;6.72;;
47856;SDS011;33618;49.972;8.242;2024-01-10T08:51:53;15.82;;;7.28;;
47856;SDS011;33618;49.972;8.242;2024-01-10T08:54:19;10.48;;;6.35;;
47856;SDS011;33618;49.972;8.242;2024-01-10T08:56:48;17.08;;;6.93;;
47856;SDS011;33618;49.972;8.242;2024-01-10T08:59:15;23.08;;;7.95;;
47856;SDS011;33618;49.972;8.242;2024-01-10T09:01:42;19.60;;;7.70;;
47856;SDS011;33618;49.972;8.242;2024-01-10T09:04:10;15.90;;;7.78;;
47856;SDS011;33618;49.972;8.242;2024-01-10T09:06:37;13.75;;;7.65;;
47856;SDS011;33618;49.972;8.242;2024-01-10T09:09:04;11.50;;;5.50;;
47856;SDS011;33618;49.972;8.242;2024-01-10T09:11:30;19.15;;;7.63;;
47856;SDS011;33618;49.972;8.242;2024-01-10T09:14:02;15.95;;;8.20;;
47856;SDS011;33618;49.972;8.242;2024-01-10T09:16:28;15.43;;;7.03;;
47856;SDS011;33618;49.972;8.242;2024-01-10T09:18:55;19.08;;;7.85;;
47856;SDS011;33618;49.972;8.242;2024-01-10T09:21:26;13.55;;;7.63;;
47856;SDS011;33618;49.972;8.242;2024-01-10T09:23:53;17.27;;;6.47;;
47856;SDS011;33618;49.972;8.242;2024-01-10T09:26:22;10.38;;;6.03;;
47856;SDS011;33618;49.972;8.242;2024-01-10T09:28:49;12.82;;;6.57;;
47856;SDS011;33618;49.972;8.242;2024-01-10T09:31:16;16.60;;;6.80;;
47856;SDS011;33618;49.972;8.242;2024-01-10T09:33:43;15.48;;;7.22;;
47856;SDS011;33618;49.972;8.242;2024-01-10T09:36:10;19.98;;;7.43;;
47856;SDS011;33618;49.972;8.242;2024-01-10T09:38:37;19.23;;;7.25;;
47856;SDS011;33618;49.972;8.242;2024-01-10T09:41:04;18.08;;;7.78;;
47856;SDS011;33618;49.972;8.242;2024-01-10T09:43:32;19.88;;;7.55;;
47856;SDS011;33618;49.972;8.242;2024-01-10T09:46:02;20.52;;;7.45;;
47856;SDS011;33618;49.972;8.242;2024-01-10T09:48:29;18.13;;;7.78;;
47856;SDS011;33618;49.972;8.242;2024-01-10T09:50:57;16.92;;;7.50;;
47856;SDS011;33618;49.972;8.242;2024-01-10T09:53:24;18.02;;;6.88;;
47856;SDS011;33618;49.972;8.242;2024-01-10T09:55:56;15.10;;;7.13;;
47856;SDS011;33618;49.972;8.242;2024-01-10T09:58:26;18.58;;;5.68;;
47856;SDS011;33618;49.972;8.242;2024-01-10T10:00:53;23.20;;;7.05;;
47856;SDS011;33618;49.972;8.242;2024-01-10T10:03:21;15.93;;;8.00;;
47856;SDS011;33618;49.972;8.242;2024-01-10T10:05:48;17.27;;;7.50;;
47856;SDS011;33618;49.972;8.242;2024-01-10T10:08:15;23.25;;;7.75;;
47856;SDS011;33618;49.972;8.242;2024-01-10T10:10:49;19.95;;;7.32;;
47856;SDS011;33618;49.972;8.242;2024-01-10T10:13:26;18.23;;;7.43;;
47856;SDS011;33618;49.972;8.242;2024-01-10T10:15:57;13.55;;;6.65;;
47856;SDS011;33618;49.972;8.242;2024-01-10T10:18:26;19.80;;;8.23;;
47856;SDS011;33618;49.972;8.242;2024-01-10T10:21:09;22.02;;;8.93;;
47856;SDS011;33618;49.972;8.242;2024-01-10T10:23:44;19.70;;;6.85;;
47856;SDS011;33618;49.972;8.242;2024-01-10T10:26:33;13.95;;;7.10;;
47856;SDS011;33618;49.972;8.242;2024-01-10T10:29:01;18.00;;;7.10;;
47856;SDS011;33618;49.972;8.242;2024-01-10T10:31:29;15.70;;;7.05;;
47856;SDS011;33618;49.972;8.242;2024-01-10T10:33:59;19.15;;;7.55;;
47856;SDS011;33618;49.972;8.242;2024-01-10T10:36:29;17.88;;;6.68;;
47856;SDS011;33618;49.972;8.242;2024-01-10T10:38:59;19.63;;;6.82;;
47856;SDS011;33618;49.972;8.242;2024-01-10T10:41:29;14.98;;;6.03;;
47856;SDS011;33618;49.972;8.242;2024-01-10T10:43:58;19.02;;;7.93;;
47856;SDS011;33618;49.972;8.242;2024-01-10T10:46:31;15.40;;;7.18;;
47856;SDS011;33618;49.972;8.242;2024-01-10T10:48:59;22.45;;;7.28;;
47856;SDS011;33618;49.972;8.242;2024-01-10T10:51:33;14.18;;;6.45;;
47856;SDS011;33618;49.972;8.242;2024-01-10T10:54:00;15.43;;;6.80;;
47856;SDS011;33618;49.972;8.242;2024-01-10T10:56:33;17.00;;;7.55;;
47856;SDS011;33618;49.972;8.242;2024-01-10T10:59:03;17.42;;;7.35;;
47856;SDS011;33618;49.972;8.242;2024-01-10T11:01:31;21.02;;;8.32;;
47856;SDS011;33618;49.972;8.242;2024-01-10T11:04:00;16.02;;;7.18;;
47856;SDS011;33618;49.972;8.242;2024-01-10T11:06:27;18.52;;;9.57;;
47856;SDS011;33618;49.972;8.242;2024-01-10T11:09:00;11.60;;;5.88;;
47856;SDS011;33618;49.972;8.242;2024-01-10T11:19:53;19.10;;;9.02;;
47856;SDS011;33618;49.972;8.242;2024-01-10T11:22:43;21.75;;;7.85;;
47856;SDS011;33618;49.972;8.242;2024-01-10T11:25:23;19.00;;;8.50;;
47856;SDS011;33618;49.972;8.242;2024-01-10T11:27:55;18.98;;;6.85;;
47856;SDS011;33618;49.972;8.242;2024-01-10T11:30:36;20.27;;;8.63;;
47856;SDS011;33618;49.972;8.242;2024-01-10T11:33:25;20.38;;;8.93;;
47856;SDS011;33618;49.972;8.242;2024-01-10T11:41:12;24.77;;;9.50;;
47856;SDS011;33618;49.972;8.242;2024-01-10T11:43:41;20.25;;;8.45;;
47856;SDS011;33618;49.972;8.242;2024-01-10T11:46:08;17.77;;;8.55;;
47856;SDS011;33618;49.972;8.242;2024-01-10T11:48:36;19.92;;;9.23;;
47856;SDS011;33618;49.972;8.242;2024-01-10T11:51:05;17.48;;;8.65;;
47856;SDS011;33618;49.972;8.242;2024-01-10T11:53:40;21.33;;;9.32;;
47856;SDS011;33618;49.972;8.242;2024-01-10T11:56:09;17.70;;;9.23;;
47856;SDS011;33618;49.972;8.242;2024-01-10T11:59:02;18.67;;;8.80;;
47856;SDS011;33618;49.972;8.242;2024-01-10T12:04:03;19.83;;;8.48;;
47856;SDS011;33618;49.972;8.242;2024-01-10T12:06:43;16.33;;;8.43;;
47856;SDS011;33618;49.972;8.242;2024-01-10T12:09:12;16.67;;;8.52;;
47856;SDS011;33618;49.972;8.242;2024-01-10T12:11:40;15.32;;;7.57;;
47856;SDS011;33618;49.972;8.242;2024-01-10T12:14:08;15.98;;;8.02;;
47856;SDS011;33618;49.972;8.242;2024-01-10T12:16:36;17.73;;;7.97;;
47856;SDS011;33618;49.972;8.242;2024-01-10T12:19:03;17.58;;;7.93;;
47856;SDS011;33618;49.972;8.242;2024-01-10T12:21:31;17.42;;;8.80;;
47856;SDS011;33618;49.972;8.242;2024-01-10T12:23:58;19.10;;;12.27;;
47856;SDS011;33618;49.972;8.242;2024-01-10T12:26:25;15.20;;;8.32;;
47856;SDS011;33618;49.972;8.242;2024-01-10T12:28:57;19.45;;;9.30;;
47856;SDS011;33618;49.972;8.242;2024-01-10T12:31:28;19.05;;;10.00;;
47856;SDS011;33618;49.972;8.242;2024-01-10T12:33:55;18.10;;;9.35;;
47856;SDS011;33618;49.972;8.242;2024-01-10T12:36:23;22.25;;;9.82;;
47856;SDS011;33618;49.972;8.242;2024-01-10T12:38:50;22.45;;;9.70;;
47856;SDS011;33618;49.972;8.242;2024-01-10T12:41:18;20.35;;;9.02;;
47856;SDS011;33618;49.972;8.242;2024-01-10T12:43:55;20.02;;;13.90;;
47856;SDS011;33618;49.972;8.242;2024-01-10T12:46:22;18.02;;;13.15;;
47856;SDS011;33618;49.972;8.242;2024-01-10T12:48:59;19.33;;;13.75;;
47856;SDS011;33618;49.972;8.242;2024-01-10T12:51:29;17.80;;;8.88;;
47856;SDS011;33618;49.972;8.242;2024-01-10T12:53:57;17.55;;;12.80;;
47856;SDS011;33618;49.972;8.242;2024-01-10T12:56:25;18.67;;;11.18;;
47856;SDS011;33618;49.972;8.242;2024-01-10T12:58:54;18.55;;;10.23;;
47856;SDS011;33618;49.972;8.242;2024-01-10T13:01:22;20.58;;;14.50;;
47856;SDS011;33618;49.972;8.242;2024-01-10T13:03:50;21.35;;;10.02;;
47856;SDS011;33618;49.972;8.242;2024-01-10T13:06:17;16.42;;;9.10;;
47856;SDS011;33618;49.972;8.242;2024-01-10T13:08:45;18.30;;;13.38;;
47856;SDS011;33618;49.972;8.242;2024-01-10T13:11:12;21.17;;;11.82;;
47856;SDS011;33618;49.972;8.242;2024-01-10T13:13:41;20.48;;;13.82;;
47856;SDS011;33618;49.972;8.242;2024-01-10T13:16:09;18.38;;;10.35;;
47856;SDS011;33618;49.972;8.242;2024-01-10T13:18:37;20.23;;;14.27;;
47856;SDS011;33618;49.972;8.242;2024-01-10T13:21:08;20.05;;;14.35;;
47856;SDS011;33618;49.972;8.242;2024-01-10T13:23:36;22.00;;;14.23;;
47856;SDS011;33618;49.972;8.242;2024-01-10T13:26:03;19.17;;;13.63;;
47856;SDS011;33618;49.972;8.242;2024-01-10T13:28:30;18.77;;;13.70;;
47856;SDS011;33618;49.972;8.242;2024-01-10T13:30:57;17.65;;;10.75;;
47856;SDS011;33618;49.972;8.242;2024-01-10T13:33:25;22.60;;;11.68;;
47856;SDS011;33618;49.972;8.242;2024-01-10T13:35:52;19.65;;;14.35;;
47856;SDS011;33618;49.972;8.242;2024-01-10T13:38:19;20.90;;;14.80;;
47856;SDS011;33618;49.972;8.242;2024-01-10T13:40:46;22.52;;;14.77;;
47856;SDS011;33618;49.972;8.242;2024-01-10T13:43:37;19.35;;;14.00;;
47856;SDS011;33618;49.972;8.242;2024-01-10T13:46:06;20.48;;;14.43;;
47856;SDS011;33618;49.972;8.242;2024-01-10T13:48:35;22.30;;;14.65;;
47856;SDS011;33618;49.972;8.242;2024-01-10T13:51:02;20.63;;;13.88;;
47856;SDS011;33618;49.972;8.242;2024-01-10T13:53:29;19.42;;;14.02;;
47856;SDS011;33618;49.972;8.242;2024-01-10T13:55:56;16.25;;;9.07;;
47856;SDS011;33618;49.972;8.242;2024-01-10T13:58:23;20.73;;;14.00;;
47856;SDS011;33618;49.972;8.242;2024-01-10T14:00:51;18.48;;;13.52;;
47856;SDS011;33618;49.972;8.242;2024-01-10T14:03:18;19.73;;;14.27;;
47856;SDS011;33618;49.972;8.242;2024-01-10T14:05:45;22.23;;;12.23;;
47856;SDS011;33618;49.972;8.242;2024-01-10T14:08:12;19.70;;;12.93;;
47856;SDS011;33618;49.972;8.242;2024-01-10T14:10:39;20.55;;;12.55;;
47856;SDS011;33618;49.972;8.242;2024-01-10T14:13:08;19.00;;;9.80;;
47856;SDS011;33618;49.972;8.242;2024-01-10T14:15:35;20.55;;;9.40;;
47856;SDS011;33618;49.972;8.242;2024-01-10T14:18:02;20.65;;;14.10;;
47856;SDS011;33618;49.972;8.242;2024-01-10T14:20:29;19.58;;;14.27;;
47856;SDS011;33618;49.972;8.242;2024-01-10T14:22:57;19.42;;;13.77;;
47856;SDS011;33618;49.972;8.242;2024-01-10T14:25:25;19.75;;;13.75;;
47856;SDS011;33618;49.972;8.242;2024-01-10T14:27:52;18.30;;;13.88;;
47856;SDS011;33618;49.972;8.242;2024-01-10T14:30:19;19.63;;;9.55;;
47856;SDS011;33618;49.972;8.242;2024-01-10T14:32:46;22.65;;;15.13;;
47856;SDS011;33618;49.972;8.242;2024-01-10T14:35:14;21.80;;;14.48;;
47856;SDS011;33618;49.972;8.242;2024-01-10T14:37:42;24.55;;;10.18;;
47856;SDS011;33618;49.972;8.242;2024-01-10T14:40:09;22.92;;;14.70;;
47856;SDS011;33618;49.972;8.242;2024-01-10T14:42:36;21.38;;;13.32;;
47856;SDS011;33618;49.972;8.242;2024-01-10T14:45:03;18.92;;;8.40;;
47856;SDS011;33618;49.972;8.242;2024-01-10T14:47:30;17.80;;;8.95;;
47856;SDS011;33618;49.972;8.242;2024-01-10T14:49:58;19.70;;;9.32;;
47856;SDS011;33618;49.972;8.242;2024-01-10T14:52:25;19.13;;;9.93;;
47856;SDS011;33618;49.972;8.242;2024-01-10T14:54:52;18.65;;;9.90;;
47856;SDS011;33618;49.972;8.242;2024-01-10T14:57:19;20.65;;;10.48;;
47856;SDS011;33618;49.972;8.242;2024-01-10T14:59:46;22.73;;;9.73;;
47856;SDS011;33618;49.972;8.242;2024-01-10T15:02:15;21.27;;;13.95;;
47856;SDS011;33618;49.972;8.242;2024-01-10T15:04:44;21.75;;;12.20;;